Time;durP1;ratioP1;P1;durP2;ratioP2;P2;SDS_P1;SDS_P2;PMS_P1;PMS_P2;Temp;Humidity;BMP_temperature;BMP_pressure;BME280_temperature;BME280_humidity;BME280_pressure;Samples;Min_cycle;Max_cycle;Signal;HPM_P1;HPM_P2
2023/05/16 00:02:17;;;;;;;12.20;8.15;;;16.70;99.90;;;;;;5065909;28;20039;-46
2023/05/16 00:04:43;;;;;;;17.40;9.15;;;16.70;99.90;;;;;;5064572;28;20029;-47
2023/05/16 00:07:08;;;;;;;14.90;8.35;;;16.70;99.90;;;;;;5066309;28;20028;-47
2023/05/16 00:09:34;;;;;;;17.85;8.73;;;16.70;99.90;;;;;;5062278;28;20075;-47
2023/05/16 00:12:00;;;;;;;14.30;8.45;;;16.70;99.90;;;;;;5069991;28;20039;-47
2023/05/16 00:14:26;;;;;;;11.82;8.25;;;16.70;99.90;;;;;;5064400;28;20109;-47
2023/05/16 00:16:57;;;;;;;13.07;8.20;;;16.70;99.90;;;;;;5071351;28;20103;-47
2023/05/16 00:19:23;;;;;;;13.88;8.35;;;16.70;99.90;;;;;;5068882;28;20097;-47
2023/05/16 00:21:48;;;;;;;14.48;6.70;;;16.70;99.90;;;;;;5066719;28;20036;-48
2023/05/16 00:24:14;;;;;;;12.45;6.80;;;16.80;99.90;;;;;;5064087;28;20025;-46
2023/05/16 00:26:40;;;;;;;13.63;6.97;;;16.80;99.90;;;;;;5068307;28;20070;-47
2023/05/16 00:29:06;;;;;;;12.77;7.35;;;16.70;99.90;;;;;;5068960;28;20052;-47
2023/05/16 00:31:32;;;;;;;11.90;6.53;;;16.70;99.90;;;;;;5068522;28;20024;-46
2023/05/16 00:33:58;;;;;;;11.98;6.72;;;;;;;;;;5060536;28;20021;-46
2023/05/16 00:36:23;;;;;;;11.02;6.38;;;16.30;99.90;;;;;;5084371;28;20413;-47
2023/05/16 00:38:49;;;;;;;8.25;6.47;;;16.30;99.90;;;;;;5067240;28;20479;-47
2023/05/16 00:41:16;;;;;;;9.43;7.03;;;16.30;99.90;;;;;;5062887;28;20029;-47
2023/05/16 00:43:42;;;;;;;10.10;6.90;;;16.40;99.90;;;;;;5020645;28;20041;-47
2023/05/16 00:46:07;;;;;;;9.80;6.97;;;16.30;99.90;;;;;;5064058;28;20475;-47
2023/05/16 00:48:33;;;;;;;10.20;6.80;;;16.30;99.90;;;;;;5040719;28;20052;-46
2023/05/16 00:51:00;;;;;;;11.30;7.57;;;16.30;99.90;;;;;;5069005;28;20040;-46
2023/05/16 00:53:26;;;;;;;11.23;7.85;;;16.30;99.90;;;;;;5064211;28;20028;-46
2023/05/16 00:55:52;;;;;;;9.07;5.93;;;16.30;99.90;;;;;;5070024;28;20116;-47
2023/05/16 00:58:20;;;;;;;8.60;6.28;;;16.30;99.90;;;;;;5065490;28;20350;-46
2023/05/16 01:00:46;;;;;;;10.52;6.05;;;16.40;99.90;;;;;;5063424;28;20465;-47
2023/05/16 01:03:12;;;;;;;8.23;5.95;;;16.40;99.90;;;;;;5068833;28;20035;-47
2023/05/16 01:05:38;;;;;;;8.85;6.18;;;16.40;99.90;;;;;;5045659;28;20032;-46
2023/05/16 01:08:03;;;;;;;12.18;6.80;;;16.30;99.90;;;;;;5063534;28;20120;-47
2023/05/16 01:10:38;;;;;;;10.98;6.38;;;16.30;99.90;;;;;;5063698;28;20032;-47
2023/05/16 01:13:27;;;;;;;8.75;6.35;;;;;;;;;;5061279;28;20035;-47
2023/05/16 01:16:03;;;;;;;9.77;6.43;;;16.10;99.90;;;;;;5065543;28;20517;-48
2023/05/16 01:18:35;;;;;;;10.85;7.05;;;16.30;99.90;;;;;;5065098;28;20365;-47
2023/05/16 01:21:08;;;;;;;10.38;6.93;;;16.10;99.90;;;;;;5065658;28;20032;-46
2023/05/16 01:23:42;;;;;;;10.63;6.40;;;16.10;99.90;;;;;;5063817;28;20038;-46
2023/05/16 01:26:14;;;;;;;10.15;6.20;;;16.20;99.90;;;;;;5067431;28;20035;-46
2023/05/16 01:28:41;;;;;;;10.95;7.15;;;16.10;99.90;;;;;;5067499;28;20129;-46
2023/05/16 01:31:06;;;;;;;10.77;7.35;;;16.10;99.90;;;;;;5060767;28;20538;-46
2023/05/16 01:33:32;;;;;;;9.07;6.53;;;16.30;99.90;;;;;;5066987;28;20025;-46
2023/05/16 01:36:19;;;;;;;9.68;6.25;;;16.20;99.90;;;;;;5050155;28;20056;-47
2023/05/16 01:38:50;;;;;;;9.40;6.10;;;16.20;99.90;;;;;;5066598;28;20043;-47
2023/05/16 01:41:31;;;;;;;8.90;6.50;;;16.30;99.90;;;;;;5073470;28;20113;-46
2023/05/16 01:44:02;;;;;;;9.10;6.68;;;16.30;99.90;;;;;;5070211;28;20484;-46
2023/05/16 01:46:33;;;;;;;8.98;5.80;;;16.30;99.90;;;;;;5067668;28;20043;-47
2023/05/16 01:49:19;;;;;;;9.68;6.68;;;16.20;99.90;;;;;;5066586;28;20086;-46
2023/05/16 01:51:50;;;;;;;9.65;5.90;;;16.30;99.90;;;;;;5051657;28;20040;-47
2023/05/16 01:54:18;;;;;;;10.93;6.40;;;16.20;99.90;;;;;;5046298;28;20769;-47
2023/05/16 01:56:54;;;;;;;9.02;6.10;;;16.20;99.90;;;;;;5066543;28;20025;-46
2023/05/16 01:59:26;;;;;;;9.45;6.25;;;16.20;99.90;;;;;;5027562;28;20041;-46
2023/05/16 02:01:56;;;;;;;9.43;6.38;;;16.30;99.90;;;;;;5038366;28;20028;-46
2023/05/16 02:04:23;;;;;;;9.88;6.15;;;16.30;99.90;;;;;;5068639;28;20071;-46
2023/05/16 02:06:50;;;;;;;10.20;5.70;;;16.20;99.90;;;;;;5065511;28;20060;-46
2023/05/16 02:09:15;;;;;;;8.65;5.75;;;16.10;99.90;;;;;;5061957;28;20086;-47
2023/05/16 02:11:42;;;;;;;8.20;5.97;;;16.20;99.90;;;;;;5074775;28;20025;-47
2023/05/16 02:14:08;;;;;;;9.88;5.50;;;16.20;99.90;;;;;;5067757;28;20033;-46
2023/05/16 02:16:34;;;;;;;8.55;5.65;;;16.30;99.90;;;;;;5044569;28;20048;-46
2023/05/16 02:19:00;;;;;;;8.35;6.30;;;16.30;99.90;;;;;;5070664;28;20094;-46
2023/05/16 02:21:26;;;;;;;7.97;5.60;;;16.30;99.90;;;;;;5078994;28;20624;-47
2023/05/16 02:23:52;;;;;;;8.25;6.15;;;16.30;99.90;;;;;;5070473;28;20021;-47
2023/05/16 02:26:18;;;;;;;8.18;6.00;;;16.20;99.90;;;;;;5060814;28;20040;-47
2023/05/16 02:28:43;;;;;;;8.57;6.05;;;16.20;99.90;;;;;;5069511;28;20021;-47
2023/05/16 02:31:09;;;;;;;8.00;5.43;;;16.10;99.90;;;;;;5054103;28;20036;-46
2023/05/16 02:33:35;;;;;;;7.70;5.80;;;16.10;99.90;;;;;;5014138;28;20043;-48
2023/05/16 02:36:01;;;;;;;7.78;5.40;;;16.10;99.90;;;;;;5039214;28;20041;-47
2023/05/16 02:38:26;;;;;;;6.07;4.85;;;16.10;99.90;;;;;;5052403;28;20037;-47
2023/05/16 02:40:52;;;;;;;8.35;5.45;;;16.10;99.90;;;;;;5070625;28;20039;-47
2023/05/16 02:43:18;;;;;;;8.75;6.55;;;16.20;99.90;;;;;;5071422;28;20074;-46
2023/05/16 02:45:44;;;;;;;8.13;5.72;;;16.20;99.90;;;;;;5065700;28;20117;-47
2023/05/16 02:48:10;;;;;;;7.47;5.35;;;16.20;99.90;;;;;;5068624;28;20106;-50
2023/05/16 02:50:39;;;;;;;7.40;5.40;;;16.20;99.90;;;;;;5049306;28;20476;-47
2023/05/16 02:53:05;;;;;;;7.78;5.35;;;16.10;99.90;;;;;;5047798;28;20128;-48
2023/05/16 02:55:30;;;;;;;6.72;5.20;;;16.10;99.90;;;;;;5017382;28;20068;-48
2023/05/16 02:57:56;;;;;;;9.80;5.55;;;16.10;99.90;;;;;;5034860;28;20509;-48
2023/05/16 03:00:22;;;;;;;10.48;5.38;;;16.20;99.90;;;;;;5043355;28;20049;-47
2023/05/16 03:02:48;;;;;;;8.10;5.28;;;16.20;99.90;;;;;;5048284;28;20043;-47
2023/05/16 03:05:13;;;;;;;9.07;4.97;;;16.20;99.90;;;;;;5050116;28;20071;-47
2023/05/16 03:07:39;;;;;;;10.07;5.75;;;16.20;99.90;;;;;;5021257;28;20033;-47
2023/05/16 03:10:06;;;;;;;8.68;6.13;;;16.30;99.90;;;;;;5047275;28;20033;-47
2023/05/16 03:12:32;;;;;;;8.98;7.40;;;16.30;99.90;;;;;;5033635;28;20128;-47
2023/05/16 03:14:58;;;;;;;12.10;8.05;;;16.40;99.90;;;;;;4968680;28;20044;-47
2023/05/16 03:17:23;;;;;;;9.63;7.10;;;16.40;99.90;;;;;;5050878;28;20033;-47
2023/05/16 03:19:50;;;;;;;9.13;6.72;;;16.50;99.90;;;;;;4984978;28;20036;-47
2023/05/16 03:22:16;;;;;;;8.48;6.13;;;16.50;99.90;;;;;;5049425;28;20033;-47
2023/05/16 03:24:41;;;;;;;9.93;6.75;;;16.60;99.90;;;;;;5057613;28;20037;-49
2023/05/16 03:27:07;;;;;;;8.73;6.18;;;16.60;99.90;;;;;;5029220;28;20079;-47
2023/05/16 03:29:33;;;;;;;8.32;6.72;;;16.50;99.90;;;;;;5064103;28;20032;-47
2023/05/16 03:31:59;;;;;;;9.20;6.13;;;16.40;99.90;;;;;;5046370;28;20048;-46
2023/05/16 03:34:25;;;;;;;7.07;5.22;;;16.50;99.90;;;;;;5068063;28;20028;-47
2023/05/16 03:36:51;;;;;;;8.77;6.07;;;16.50;99.90;;;;;;5068619;28;20028;-47
2023/05/16 03:39:17;;;;;;;8.85;5.30;;;16.60;99.90;;;;;;5069040;28;20036;-47
2023/05/16 03:41:43;;;;;;;9.50;6.65;;;16.50;99.90;;;;;;5064412;28;20029;-47
2023/05/16 03:44:09;;;;;;;8.25;5.25;;;16.30;99.90;;;;;;5029751;28;20126;-47
2023/05/16 03:46:35;;;;;;;6.75;5.93;;;16.20;99.90;;;;;;5068520;28;20036;-48
2023/05/16 03:49:01;;;;;;;10.07;5.15;;;16.20;99.90;;;;;;5041823;28;20052;-47
2023/05/16 03:51:29;;;;;;;7.38;4.60;;;;;;;;;;5068506;28;20357;-48
2023/05/16 03:53:54;;;;;;;6.57;4.72;;;16.00;99.90;;;;;;5031814;28;20480;-47
2023/05/16 03:56:20;;;;;;;6.80;5.10;;;16.00;99.90;;;;;;5052124;28;20033;-47
2023/05/16 03:58:46;;;;;;;6.57;4.68;;;16.00;99.90;;;;;;5065015;28;20029;-47
2023/05/16 04:01:12;;;;;;;6.85;4.60;;;16.10;99.90;;;;;;5068860;28;20108;-47
2023/05/16 04:03:38;;;;;;;7.78;4.93;;;16.10;99.90;;;;;;5069286;28;20052;-47
2023/05/16 04:06:05;;;;;;;10.02;4.97;;;16.20;99.90;;;;;;5047155;28;20121;-47
2023/05/16 04:08:31;;;;;;;7.60;4.65;;;16.10;99.90;;;;;;5062092;28;20027;-46
2023/05/16 04:10:57;;;;;;;7.57;4.70;;;16.10;99.90;;;;;;5069639;28;20024;-48
2023/05/16 04:13:22;;;;;;;9.77;4.85;;;16.10;99.90;;;;;;5065188;28;20071;-47
2023/05/16 04:15:48;;;;;;;6.35;5.03;;;16.10;99.90;;;;;;5063702;28;20064;-47
2023/05/16 04:18:14;;;;;;;8.65;5.13;;;16.10;99.90;;;;;;5048121;28;20037;-47
2023/05/16 04:20:41;;;;;;;9.23;4.72;;;16.10;99.90;;;;;;5065541;28;20040;-47
2023/05/16 04:23:09;;;;;;;6.03;4.32;;;16.00;99.90;;;;;;5042330;28;20032;-47
2023/05/16 04:25:35;;;;;;;7.88;4.72;;;15.70;99.90;;;;;;5028697;28;20484;-47
2023/05/16 04:28:01;;;;;;;9.15;4.75;;;15.80;99.90;;;;;;5067359;28;20058;-47
2023/05/16 04:30:26;;;;;;;9.23;5.10;;;15.80;99.90;;;;;;5049962;28;20133;-47
2023/05/16 04:32:52;;;;;;;8.25;4.57;;;15.80;99.90;;;;;;5043196;28;20090;-47
2023/05/16 04:35:18;;;;;;;7.90;4.75;;;15.90;99.90;;;;;;5067288;28;20036;-47
2023/05/16 04:37:44;;;;;;;7.47;4.72;;;15.90;99.90;;;;;;5051349;28;20177;-47
2023/05/16 04:40:11;;;;;;;7.05;4.68;;;15.80;99.90;;;;;;5058552;28;20037;-47
2023/05/16 04:42:37;;;;;;;7.85;4.47;;;15.80;99.90;;;;;;5065485;28;20391;-47
2023/05/16 04:45:05;;;;;;;7.88;5.00;;;15.80;99.90;;;;;;5067156;28;20036;-48
2023/05/16 04:47:31;;;;;;;6.05;4.57;;;15.80;99.90;;;;;;4996957;28;20040;-47
2023/05/16 04:49:57;;;;;;;7.18;4.80;;;15.80;99.90;;;;;;5028588;28;20515;-47
2023/05/16 04:52:22;;;;;;;7.38;4.75;;;15.90;99.90;;;;;;5058736;28;20036;-47
2023/05/16 04:54:51;;;;;;;8.98;4.60;;;15.90;99.90;;;;;;5064681;28;20087;-47
2023/05/16 04:57:16;;;;;;;8.30;5.10;;;15.90;99.90;;;;;;5065005;28;20041;-46
2023/05/16 04:59:43;;;;;;;7.88;5.57;;;16.00;99.90;;;;;;5042858;28;20506;-47
2023/05/16 05:02:08;;;;;;;8.93;4.60;;;16.10;99.90;;;;;;5070660;28;20035;-47
2023/05/16 05:04:34;;;;;;;8.60;4.97;;;16.10;99.90;;;;;;5064521;28;20024;-49
2023/05/16 05:07:00;;;;;;;7.00;4.65;;;16.10;99.90;;;;;;5060395;28;20125;-47
2023/05/16 05:09:26;;;;;;;8.40;4.70;;;16.10;99.90;;;;;;5061670;28;20040;-47
2023/05/16 05:11:52;;;;;;;12.13;5.07;;;16.10;99.90;;;;;;5074118;28;20028;-47
2023/05/16 05:14:17;;;;;;;8.65;4.85;;;16.20;99.90;;;;;;5071027;28;20035;-48
2023/05/16 05:16:43;;;;;;;6.68;4.90;;;16.10;99.90;;;;;;5063980;28;20036;-47
2023/05/16 05:19:09;;;;;;;8.43;4.75;;;16.10;99.90;;;;;;5067805;28;20037;-48
2023/05/16 05:21:35;;;;;;;7.32;4.78;;;16.20;99.90;;;;;;5053440;28;20041;-48
2023/05/16 05:24:00;;;;;;;7.28;5.05;;;16.20;99.90;;;;;;5071182;28;20396;-49
2023/05/16 05:26:27;;;;;;;8.55;4.75;;;16.20;99.90;;;;;;5071736;28;20048;-48
2023/05/16 05:28:53;;;;;;;7.03;4.55;;;16.20;99.90;;;;;;5059820;28;20044;-48
2023/05/16 05:31:19;;;;;;;6.95;4.05;;;;;;;;;;5071844;28;20031;-49
2023/05/16 05:33:45;;;;;;;8.07;4.95;;;16.10;99.90;;;;;;5072503;28;20115;-49
2023/05/16 05:36:11;;;;;;;6.30;4.57;;;16.40;99.90;;;;;;5043606;28;20174;-48
2023/05/16 05:38:37;;;;;;;5.28;4.07;;;16.30;99.90;;;;;;5073007;28;20471;-49
2023/05/16 05:41:03;;;;;;;6.53;5.30;;;16.50;99.90;;;;;;5030189;28;20548;-48
2023/05/16 05:43:29;;;;;;;8.45;4.85;;;16.50;99.90;;;;;;5070817;28;20047;-48
2023/05/16 05:45:55;;;;;;;8.93;4.80;;;16.40;99.90;;;;;;5068398;28;20572;-49
2023/05/16 05:48:21;;;;;;;7.82;4.93;;;16.50;99.90;;;;;;5066810;28;20123;-48
2023/05/16 05:50:47;;;;;;;6.55;4.10;;;16.70;99.90;;;;;;5025399;28;20039;-49
2023/05/16 05:53:12;;;;;;;6.22;4.50;;;16.70;99.90;;;;;;5066558;28;20150;-49
2023/05/16 05:55:40;;;;;;;7.07;4.70;;;16.70;99.90;;;;;;5067510;28;20400;-48
2023/05/16 05:58:06;;;;;;;8.82;5.60;;;16.70;99.90;;;;;;5069449;28;20032;-51
2023/05/16 06:00:32;;;;;;;7.95;4.65;;;16.80;99.90;;;;;;5051076;28;20510;-49
2023/05/16 06:02:57;;;;;;;9.02;4.55;;;16.70;99.90;;;;;;5072305;28;20486;-48
2023/05/16 06:05:23;;;;;;;6.85;4.75;;;16.70;99.90;;;;;;5069520;28;20469;-49
2023/05/16 06:07:49;;;;;;;6.10;4.43;;;16.80;99.90;;;;;;5072490;28;20439;-50
2023/05/16 06:10:15;;;;;;;6.18;4.43;;;16.90;99.90;;;;;;5055787;28;20518;-49
2023/05/16 06:12:40;;;;;;;7.57;5.60;;;17.10;99.90;;;;;;5029250;28;20042;-49
2023/05/16 06:15:07;;;;;;;6.82;4.72;;;17.10;99.90;;;;;;5066379;28;20032;-50
2023/05/16 06:17:33;;;;;;;6.53;4.30;;;17.10;99.90;;;;;;5050253;28;20036;-49
2023/05/16 06:19:59;;;;;;;5.63;4.57;;;17.20;99.90;;;;;;5057147;28;20044;-50
2023/05/16 06:22:25;;;;;;;6.97;4.80;;;;;;;;;;5054922;28;20465;-49
2023/05/16 06:24:50;;;;;;;6.68;4.97;;;17.20;99.90;;;;;;5043673;28;20044;-49
2023/05/16 06:27:16;;;;;;;5.55;4.20;;;17.30;99.90;;;;;;5051159;28;20472;-49
2023/05/16 06:29:42;;;;;;;7.70;4.97;;;17.20;99.90;;;;;;5069035;28;20036;-49
2023/05/16 06:32:08;;;;;;;8.02;4.68;;;17.30;99.90;;;;;;5049064;28;20373;-49
2023/05/16 06:34:34;;;;;;;7.38;4.47;;;17.40;99.90;;;;;;5064608;28;20361;-49
2023/05/16 06:37:02;;;;;;;8.40;5.25;;;17.40;99.90;;;;;;5052948;28;20407;-50
2023/05/16 06:39:28;;;;;;;5.95;4.72;;;17.50;99.90;;;;;;5037746;28;21180;-48
2023/05/16 06:41:54;;;;;;;7.32;4.80;;;17.50;99.90;;;;;;5071659;28;20040;-49
2023/05/16 06:44:21;;;;;;;6.93;4.75;;;17.50;99.90;;;;;;5067055;28;20047;-49
2023/05/16 06:46:47;;;;;;;5.53;4.40;;;17.50;99.90;;;;;;5069397;28;20020;-49
2023/05/16 06:49:12;;;;;;;10.70;5.45;;;17.40;99.90;;;;;;5065989;28;20446;-49
2023/05/16 06:51:39;;;;;;;5.57;4.65;;;17.30;99.90;;;;;;5072761;28;20063;-49
2023/05/16 06:54:05;;;;;;;7.47;4.97;;;17.30;99.90;;;;;;5045161;28;20115;-49
2023/05/16 06:56:31;;;;;;;7.60;4.97;;;17.30;99.90;;;;;;5071378;28;20117;-49
2023/05/16 06:58:57;;;;;;;9.07;5.18;;;17.40;99.90;;;;;;5071725;28;20040;-49
2023/05/16 07:01:23;;;;;;;7.28;5.07;;;17.40;99.90;;;;;;5058524;28;20040;-49
2023/05/16 07:03:48;;;;;;;6.25;5.00;;;17.40;99.90;;;;;;5034659;28;20050;-49
2023/05/16 07:06:14;;;;;;;6.20;3.72;;;17.50;99.90;;;;;;5077398;28;20385;-49
2023/05/16 07:08:40;;;;;;;5.65;4.78;;;17.40;99.90;;;;;;5069289;28;20369;-49
2023/05/16 07:11:06;;;;;;;6.80;5.03;;;17.50;99.90;;;;;;5045679;28;20055;-49
2023/05/16 07:13:32;;;;;;;5.00;4.10;;;;;;;;;;5061838;28;20123;-48
2023/05/16 07:15:58;;;;;;;10.15;4.82;;;;;;;;;;5070461;28;20017;-48
2023/05/16 07:18:24;;;;;;;8.57;4.70;;;17.90;99.90;;;;;;5062144;28;20043;-50
2023/05/16 07:20:50;;;;;;;5.63;3.15;;;17.80;99.90;;;;;;5071694;28;20492;-49
2023/05/16 07:23:16;;;;;;;6.28;4.20;;;17.70;99.90;;;;;;5067609;28;20043;-49
2023/05/16 07:25:41;;;;;;;6.30;4.88;;;17.80;99.90;;;;;;5063081;28;20032;-49
2023/05/16 07:28:07;;;;;;;5.90;4.75;;;17.90;99.90;;;;;;5069738;28;20025;-49
2023/05/16 07:30:33;;;;;;;8.38;5.38;;;18.00;99.90;;;;;;5046035;28;20485;-49
2023/05/16 07:32:59;;;;;;;5.75;4.82;;;18.10;99.90;;;;;;5071525;28;20036;-49
2023/05/16 07:35:25;;;;;;;12.43;4.60;;;18.30;99.90;;;;;;5070704;28;20032;-49
2023/05/16 08:16:19;;;;;;;6.22;4.45;;;;;;;;;;5088639;27;1298195;-51
2023/05/16 08:18:45;;;;;;;6.18;4.30;;;;;;;;;;5130196;27;20035;-51
2023/05/16 08:21:12;;;;;;;4.97;3.40;;;;;;;;;;5133079;27;20023;-53
2023/05/16 08:23:39;;;;;;;9.23;4.72;;;;;;;;;;5128441;27;20038;-47
2023/05/16 08:26:05;;;;;;;5.00;3.03;;;19.20;99.90;;;;;;5125679;27;20027;-51
2023/05/16 08:28:31;;;;;;;4.55;3.85;;;19.00;99.90;;;;;;5132017;27;20355;-51
2023/05/16 08:30:57;;;;;;;5.47;4.13;;;;;;;;;;5128632;27;20094;-50
2023/05/16 08:33:23;;;;;;;7.00;4.32;;;;;;;;;;5132254;27;20121;-51
2023/05/16 08:35:51;;;;;;;6.38;4.45;;;;;;;;;;5106249;28;20478;-50
2023/05/16 08:38:17;;;;;;;5.10;3.92;;;18.90;99.90;;;;;;5090303;28;20047;-51
2023/05/16 08:40:44;;;;;;;5.32;4.00;;;18.80;99.90;;;;;;5131983;27;20031;-50
2023/05/16 08:43:10;;;;;;;5.15;4.00;;;18.80;99.90;;;;;;5128956;27;20055;-53
2023/05/16 08:45:36;;;;;;;9.63;4.38;;;18.80;99.90;;;;;;5128852;27;20501;-51
2023/05/16 08:48:03;;;;;;;6.43;3.90;;;18.80;99.90;;;;;;5128560;27;20032;-51
2023/05/16 08:50:31;;;;;;;3.60;3.15;;;18.80;99.90;;;;;;5133400;27;20952;-50
2023/05/16 08:52:56;;;;;;;6.72;3.65;;;18.60;99.90;;;;;;5124702;27;20027;-52
2023/05/16 08:55:25;;;;;;;5.43;3.40;;;18.70;99.90;;;;;;5132187;27;20531;-51
2023/05/16 08:57:52;;;;;;;6.18;4.13;;;;;;;;;;5124648;27;20036;-50
2023/05/16 09:00:18;;;;;;;6.13;4.28;;;18.30;99.90;;;;;;5131661;27;20116;-51
2023/05/16 09:02:44;;;;;;;5.20;3.85;;;;;;;;;;5091128;27;20126;-51
2023/05/16 09:05:12;;;;;;;5.10;3.47;;;;;;;;;;5128340;27;20036;-50
2023/05/16 09:07:38;;;;;;;5.00;3.40;;;;;;;;;;5127972;27;20034;-49
2023/05/16 09:10:05;;;;;;;5.82;4.07;;;18.50;99.90;;;;;;5138808;27;20032;-53
2023/05/16 09:12:32;;;;;;;5.97;4.10;;;18.50;99.90;;;;;;5091248;28;20035;-50
2023/05/16 09:15:02;;;;;;;8.30;4.13;;;18.60;99.90;;;;;;5128013;27;20047;-49
2023/05/16 09:17:38;;;;;;;6.50;4.25;;;18.60;99.90;;;;;;5048016;28;20560;-50
2023/05/16 09:20:11;;;;;;;5.78;4.22;;;18.60;99.90;;;;;;5113231;28;20058;-49
2023/05/16 09:22:37;;;;;;;4.88;3.75;;;18.70;99.90;;;;;;5065112;28;20532;-50
2023/05/16 09:25:04;;;;;;;6.43;3.78;;;18.70;99.90;;;;;;5116458;27;20035;-50
2023/05/16 09:27:30;;;;;;;7.38;3.85;;;18.70;99.90;;;;;;5042074;28;20444;-50
2023/05/16 09:29:58;;;;;;;8.27;4.78;;;18.70;99.90;;;;;;5112004;27;20031;-51
2023/05/16 09:32:24;;;;;;;5.80;4.00;;;18.90;99.90;;;;;;5063351;27;20047;-51
2023/05/16 09:34:52;;;;;;;9.02;3.85;;;18.90;99.90;;;;;;5115142;28;20467;-51
2023/05/16 09:37:19;;;;;;;6.30;4.18;;;19.00;99.90;;;;;;5097204;28;20035;-52
2023/05/16 09:39:49;;;;;;;5.78;3.55;;;19.20;99.90;;;;;;5123772;27;20405;-51
2023/05/16 09:42:15;;;;;;;7.13;4.07;;;19.20;99.90;;;;;;5121724;27;20459;-51
2023/05/16 09:44:53;;;;;;;5.38;4.15;;;19.50;99.90;;;;;;5117128;27;20521;-52
2023/05/16 09:47:20;;;;;;;7.97;4.55;;;19.50;99.90;;;;;;5122608;27;20023;-52
2023/05/16 09:49:50;;;;;;;4.85;2.75;;;19.70;99.90;;;;;;5118781;27;20053;-51
2023/05/16 09:52:16;;;;;;;11.07;4.20;;;;;;;;;;5119152;27;20466;-51
2023/05/16 09:54:42;;;;;;;3.40;2.72;;;20.00;99.90;;;;;;5117034;27;20047;-52
2023/05/16 09:57:08;;;;;;;4.78;2.83;;;19.90;99.90;;;;;;5117636;27;20469;-51
2023/05/16 09:59:38;;;;;;;6.88;4.70;;;19.90;99.90;;;;;;5081147;27;20081;-50
2023/05/16 10:02:06;;;;;;;5.45;3.83;;;19.90;99.90;;;;;;5115767;27;20073;-51
2023/05/16 10:04:34;;;;;;;5.47;3.90;;;19.80;99.90;;;;;;5111906;28;20494;-52
2023/05/16 10:07:02;;;;;;;3.90;3.08;;;19.80;99.90;;;;;;5116203;27;20069;-52
2023/05/16 10:09:33;;;;;;;10.98;4.15;;;19.70;99.90;;;;;;5117547;27;20034;-51
2023/05/16 10:12:05;;;;;;;4.18;3.20;;;19.80;99.90;;;;;;5075410;28;20082;-51
2023/05/16 10:14:40;;;;;;;6.85;4.43;;;19.60;99.90;;;;;;5113286;28;20054;-49
2023/05/16 10:17:06;;;;;;;6.07;4.38;;;;;;;;;;5113919;27;20034;-53
2023/05/16 10:19:37;;;;;;;5.35;3.67;;;19.80;99.90;;;;;;5118843;27;20027;-52
2023/05/16 10:22:04;;;;;;;5.10;3.67;;;19.50;99.90;;;;;;5113531;27;20027;-51
2023/05/16 10:24:40;;;;;;;9.80;4.85;;;19.60;99.90;;;;;;5114773;27;20040;-51
2023/05/16 10:27:06;;;;;;;6.80;2.20;;;19.70;99.90;;;;;;5119665;27;20031;-51
2023/05/16 10:29:32;;;;;;;5.60;4.10;;;19.40;99.90;;;;;;5117048;27;20508;-51
2023/05/16 10:31:59;;;;;;;2.55;2.05;;;19.40;99.90;;;;;;5115338;27;20024;-51
2023/05/16 10:34:25;;;;;;;5.10;3.60;;;19.20;99.90;;;;;;5115510;27;20092;-50
2023/05/16 10:36:51;;;;;;;4.72;3.25;;;19.20;99.90;;;;;;5118010;27;20055;-51
2023/05/16 10:39:18;;;;;;;5.13;2.47;;;19.10;99.90;;;;;;5115377;27;20103;-52
2023/05/16 10:41:45;;;;;;;6.07;4.18;;;19.00;99.90;;;;;;5116370;27;20405;-51
2023/05/16 10:44:17;;;;;;;4.97;3.40;;;19.10;99.90;;;;;;5114404;27;20026;-51
2023/05/16 10:46:43;;;;;;;6.22;3.50;;;;;;;;;;5114718;27;20061;-52
2023/05/16 10:49:25;;;;;;;5.05;3.10;;;;;;;;;;5116084;27;20471;-50
2023/05/16 10:51:51;;;;;;;;;;;;;;;;;;5112051;27;20421;-51
2023/05/16 10:54:21;;;;;;;4.95;3.30;;;;;;;;;;5075482;27;19914;-53
2023/05/16 10:56:56;;;;;;;7.65;3.72;;;18.90;99.90;;;;;;5119642;27;20030;-50
2023/05/16 10:59:25;;;;;;;5.00;2.55;;;18.90;99.90;;;;;;5117985;27;20494;-50
2023/05/16 11:01:53;;;;;;;4.82;3.70;;;18.90;99.90;;;;;;5112927;27;20274;-50
2023/05/16 11:04:18;;;;;;;6.68;4.63;;;18.90;99.90;;;;;;5100208;27;20116;-52
2023/05/16 11:06:48;;;;;;;3.47;3.08;;;18.80;99.90;;;;;;5112876;27;20478;-53
2023/05/16 11:09:21;;;;;;;5.18;3.50;;;18.80;99.90;;;;;;5113767;27;20032;-53
2023/05/16 11:11:55;;;;;;;3.45;2.45;;;18.70;99.90;;;;;;5115081;27;20019;-51
2023/05/16 11:14:33;;;;;;;6.50;3.70;;;18.70;99.90;;;;;;5115192;27;20439;-53
2023/05/16 11:17:13;;;;;;;5.13;3.60;;;18.60;99.90;;;;;;5116200;27;20035;-53
2023/05/16 11:19:47;;;;;;;6.47;3.20;;;18.70;99.90;;;;;;5116820;27;20083;-51
2023/05/16 11:22:20;;;;;;;3.38;2.20;;;18.60;99.90;;;;;;5113691;28;20028;-51
2023/05/16 11:24:59;;;;;;;5.20;3.45;;;18.60;99.90;;;;;;5113859;27;20048;-51
2023/05/16 11:27:26;;;;;;;5.60;3.67;;;18.60;99.90;;;;;;5115208;27;20386;-50
2023/05/16 11:29:55;;;;;;;4.38;3.38;;;18.70;99.90;;;;;;5116112;27;20037;-51
2023/05/16 11:32:22;;;;;;;8.20;3.90;;;18.70;99.90;;;;;;5092367;28;20480;-52
2023/05/16 11:34:49;;;;;;;4.30;3.47;;;18.70;99.90;;;;;;5114608;27;20080;-50
2023/05/16 11:37:15;;;;;;;6.53;3.65;;;18.80;99.90;;;;;;5115082;27;20030;-51
2023/05/16 11:39:41;;;;;;;5.00;3.35;;;18.80;99.90;;;;;;5113986;27;20020;-52
2023/05/16 11:42:08;;;;;;;4.80;3.70;;;18.80;99.90;;;;;;5060601;27;20028;-52
2023/05/16 11:44:34;;;;;;;5.78;3.35;;;18.90;99.90;;;;;;5117388;27;20043;-52
2023/05/16 11:47:03;;;;;;;5.97;3.45;;;18.90;99.90;;;;;;5118173;27;20064;-52
2023/05/16 11:49:29;;;;;;;5.07;4.38;;;19.00;99.90;;;;;;5112986;28;20503;-52
2023/05/16 11:51:56;;;;;;;5.07;3.78;;;19.10;99.90;;;;;;5113400;27;20027;-53
2023/05/16 11:54:23;;;;;;;6.55;3.92;;;19.10;99.90;;;;;;5116914;27;20039;-52
2023/05/16 11:56:50;;;;;;;4.28;3.38;;;19.20;99.90;;;;;;5116687;28;20531;-51
2023/05/16 11:59:19;;;;;;;5.68;3.75;;;19.30;99.90;;;;;;5117643;27;20080;-52
2023/05/16 12:01:47;;;;;;;5.13;3.92;;;19.40;99.90;;;;;;5116138;28;20442;-51
2023/05/16 12:04:14;;;;;;;6.40;4.20;;;19.40;99.90;;;;;;5111003;28;20143;-52
2023/05/16 12:06:45;;;;;;;6.85;3.00;;;19.30;99.90;;;;;;5112227;28;20019;-51
2023/05/16 12:09:13;;;;;;;4.35;3.50;;;19.30;99.90;;;;;;5112603;28;20053;-50
2023/05/16 12:11:41;;;;;;;8.70;4.18;;;19.30;99.90;;;;;;5114193;28;21139;-52
2023/05/16 12:14:09;;;;;;;5.07;3.33;;;19.30;99.90;;;;;;5115202;28;20457;-51
2023/05/16 12:16:36;;;;;;;4.57;2.90;;;19.30;99.90;;;;;;5112643;28;20052;-52
2023/05/16 12:19:04;;;;;;;5.65;2.20;;;19.30;99.90;;;;;;5121840;28;20066;-52
2023/05/16 12:21:33;;;;;;;8.80;4.20;;;;;;;;;;5117071;28;20032;-50
2023/05/16 12:24:00;;;;;;;5.90;3.65;;;;;;;;;;5114923;28;20536;-51
2023/05/16 12:26:29;;;;;;;5.05;3.28;;;19.80;99.90;;;;;;5112902;28;20028;-52
2023/05/16 12:28:59;;;;;;;4.28;2.92;;;;;;;;;;5119077;28;20035;-51
2023/05/16 12:31:25;;;;;;;6.65;4.10;;;;;;;;;;5116099;28;20023;-51
2023/05/16 12:33:54;;;;;;;4.65;2.85;;;;;;;;;;5077868;28;20493;-53
2023/05/16 12:36:21;;;;;;;3.67;2.67;;;20.70;99.90;;;;;;5115022;28;20038;-53
2023/05/16 12:38:47;;;;;;;6.72;3.72;;;;;;;;;;5121859;28;20058;-52
2023/05/16 12:41:22;;;;;;;6.32;3.47;;;21.10;99.90;;;;;;5112254;28;20027;-53
2023/05/16 12:43:49;;;;;;;5.13;3.10;;;21.00;99.90;;;;;;5112341;28;20140;-51
2023/05/16 12:46:15;;;;;;;3.47;2.00;;;20.90;99.90;;;;;;5117912;28;20046;-53
2023/05/16 12:48:42;;;;;;;3.88;3.05;;;21.10;99.90;;;;;;5113179;28;20032;-53
2023/05/16 12:51:16;;;;;;;3.83;2.40;;;;;;;;;;5116571;27;20122;-52
2023/05/16 12:53:44;;;;;;;7.90;2.95;;;21.50;99.90;;;;;;5116517;27;20031;-53
2023/05/16 12:56:11;;;;;;;4.85;3.30;;;21.50;99.90;;;;;;5116563;27;20055;-53
2023/05/16 12:58:37;;;;;;;5.95;3.35;;;21.30;99.90;;;;;;5116303;27;20047;-53
2023/05/16 13:01:04;;;;;;;6.57;2.30;;;21.40;99.90;;;;;;5119414;27;20033;-51
2023/05/16 13:03:31;;;;;;;3.30;2.70;;;21.40;99.90;;;;;;5118368;27;20035;-51
2023/05/16 13:05:57;;;;;;;2.88;2.30;;;21.60;99.90;;;;;;5115511;28;20038;-52
2023/05/16 13:08:24;;;;;;;9.10;3.70;;;;;;;;;;5117334;27;20423;-53
2023/05/16 13:10:50;;;;;;;6.28;3.33;;;21.70;99.90;;;;;;5099357;27;20471;-56
2023/05/16 13:13:17;;;;;;;4.35;2.90;;;;;;;;;;5117418;27;20035;-55
2023/05/16 13:15:46;;;;;;;4.20;3.38;;;;;;;;;;5117133;27;20394;-50
2023/05/16 13:18:15;;;;;;;9.27;5.28;;;;;;;;;;5117295;27;20032;-51
2023/05/16 13:20:42;;;;;;;6.95;3.80;;;22.60;99.90;;;;;;5062687;28;20039;-53
2023/05/16 13:23:08;;;;;;;2.50;2.05;;;22.50;99.90;;;;;;5116019;27;20024;-54
2023/05/16 13:25:34;;;;;;;5.65;3.10;;;22.30;99.90;;;;;;5116550;27;20375;-52
2023/05/16 13:27:59;;;;;;;5.20;3.17;;;22.30;99.90;;;;;;5113389;27;20032;-53
2023/05/16 13:30:25;;;;;;;3.65;3.10;;;22.50;99.90;;;;;;5114778;27;20054;-54
2023/05/16 13:32:51;;;;;;;4.38;3.15;;;;;;;;;;5065741;28;20028;-54
2023/05/16 13:35:18;;;;;;;4.38;3.30;;;22.70;99.90;;;;;;5117316;27;20024;-54
2023/05/16 13:37:44;;;;;;;3.60;2.42;;;22.90;99.90;;;;;;5095228;27;20499;-54